sensor_id;sensor_type;location;lat;lon;timestamp;P1;durP1;ratioP1;P2;durP2;ratioP2
7587;SDS011;3835;48.850;8.938;2023-03-29T00:00:49;11.60;;;10.93;;
7587;SDS011;3835;48.850;8.938;2023-03-29T00:03:17;11.80;;;11.20;;
7587;SDS011;3835;48.850;8.938;2023-03-29T00:05:44;12.10;;;11.50;;
7587;SDS011;3835;48.850;8.938;2023-03-29T00:08:11;11.70;;;11.10;;
7587;SDS011;3835;48.850;8.938;2023-03-29T00:10:39;10.30;;;9.80;;
7587;SDS011;3835;48.850;8.938;2023-03-29T00:13:06;11.17;;;10.67;;
7587;SDS011;3835;48.850;8.938;2023-03-29T00:15:33;11.23;;;10.63;;
7587;SDS011;3835;48.850;8.938;2023-03-29T00:18:00;11.63;;;10.93;;
7587;SDS011;3835;48.850;8.938;2023-03-29T00:20:28;10.57;;;9.97;;
7587;SDS011;3835;48.850;8.938;2023-03-29T00:22:55;12.00;;;11.40;;
7587;SDS011;3835;48.850;8.938;2023-03-29T00:25:22;11.40;;;10.90;;
7587;SDS011;3835;48.850;8.938;2023-03-29T00:27:49;11.47;;;10.87;;
7587;SDS011;3835;48.850;8.938;2023-03-29T00:30:15;11.20;;;10.70;;
7587;SDS011;3835;48.850;8.938;2023-03-29T00:32:42;11.67;;;10.97;;
7587;SDS011;3835;48.850;8.938;2023-03-29T00:35:10;11.43;;;10.93;;
7587;SDS011;3835;48.850;8.938;2023-03-29T00:37:38;11.90;;;11.40;;
7587;SDS011;3835;48.850;8.938;2023-03-29T00:40:05;12.90;;;12.17;;
7587;SDS011;3835;48.850;8.938;2023-03-29T00:42:34;12.73;;;12.13;;
7587;SDS011;3835;48.850;8.938;2023-03-29T00:45:02;11.73;;;11.23;;
7587;SDS011;3835;48.850;8.938;2023-03-29T00:47:33;11.67;;;11.17;;
7587;SDS011;3835;48.850;8.938;2023-03-29T00:50:04;11.27;;;10.77;;
7587;SDS011;3835;48.850;8.938;2023-03-29T00:52:37;11.50;;;11.00;;
7587;SDS011;3835;48.850;8.938;2023-03-29T00:55:07;11.70;;;11.10;;
7587;SDS011;3835;48.850;8.938;2023-03-29T00:57:39;11.47;;;10.87;;
7587;SDS011;3835;48.850;8.938;2023-03-29T01:00:10;12.30;;;11.60;;
7587;SDS011;3835;48.850;8.938;2023-03-29T01:02:42;11.37;;;10.70;;
7587;SDS011;3835;48.850;8.938;2023-03-29T01:05:15;10.60;;;10.03;;
7587;SDS011;3835;48.850;8.938;2023-03-29T01:07:46;10.53;;;9.90;;
7587;SDS011;3835;48.850;8.938;2023-03-29T01:10:18;11.37;;;10.87;;
7587;SDS011;3835;48.850;8.938;2023-03-29T01:12:50;11.50;;;10.67;;
7587;SDS011;3835;48.850;8.938;2023-03-29T01:15:21;12.63;;;12.03;;
7587;SDS011;3835;48.850;8.938;2023-03-29T01:17:52;12.07;;;11.47;;
7587;SDS011;3835;48.850;8.938;2023-03-29T01:20:22;12.67;;;12.07;;
7587;SDS011;3835;48.850;8.938;2023-03-29T01:23:13;12.70;;;11.93;;
7587;SDS011;3835;48.850;8.938;2023-03-29T01:25:53;14.50;;;13.67;;
7587;SDS011;3835;48.850;8.938;2023-03-29T01:28:29;14.33;;;13.63;;
7587;SDS011;3835;48.850;8.938;2023-03-29T01:30:59;14.20;;;13.50;;
7587;SDS011;3835;48.850;8.938;2023-03-29T01:33:33;12.87;;;12.27;;
7587;SDS011;3835;48.850;8.938;2023-03-29T01:36:05;12.03;;;11.43;;
7587;SDS011;3835;48.850;8.938;2023-03-29T01:38:38;13.30;;;12.70;;
7587;SDS011;3835;48.850;8.938;2023-03-29T01:41:08;13.33;;;12.53;;
7587;SDS011;3835;48.850;8.938;2023-03-29T01:43:38;13.50;;;12.70;;
7587;SDS011;3835;48.850;8.938;2023-03-29T01:46:10;12.60;;;12.00;;
7587;SDS011;3835;48.850;8.938;2023-03-29T01:48:42;13.53;;;12.93;;
7587;SDS011;3835;48.850;8.938;2023-03-29T01:51:15;12.80;;;12.07;;
7587;SDS011;3835;48.850;8.938;2023-03-29T01:53:46;15.10;;;14.10;;
7587;SDS011;3835;48.850;8.938;2023-03-29T01:56:18;15.00;;;14.10;;
7587;SDS011;3835;48.850;8.938;2023-03-29T01:58:49;14.73;;;12.93;;
7587;SDS011;3835;48.850;8.938;2023-03-29T02:01:20;13.90;;;12.87;;
7587;SDS011;3835;48.850;8.938;2023-03-29T02:03:51;14.27;;;13.47;;
7587;SDS011;3835;48.850;8.938;2023-03-29T02:06:21;14.93;;;14.23;;
7587;SDS011;3835;48.850;8.938;2023-03-29T02:08:51;13.93;;;13.13;;
7587;SDS011;3835;48.850;8.938;2023-03-29T02:11:19;15.53;;;14.70;;
7587;SDS011;3835;48.850;8.938;2023-03-29T02:13:49;13.70;;;12.87;;
7587;SDS011;3835;48.850;8.938;2023-03-29T02:16:16;13.40;;;12.33;;
7587;SDS011;3835;48.850;8.938;2023-03-29T02:18:44;12.23;;;11.53;;
7587;SDS011;3835;48.850;8.938;2023-03-29T02:21:14;13.57;;;12.87;;
7587;SDS011;3835;48.850;8.938;2023-03-29T02:23:46;11.87;;;11.23;;
7587;SDS011;3835;48.850;8.938;2023-03-29T02:26:14;12.13;;;11.50;;
7587;SDS011;3835;48.850;8.938;2023-03-29T02:28:43;11.70;;;10.83;;
7587;SDS011;3835;48.850;8.938;2023-03-29T02:31:12;12.00;;;11.40;;
7587;SDS011;3835;48.850;8.938;2023-03-29T02:33:44;11.93;;;11.33;;
7587;SDS011;3835;48.850;8.938;2023-03-29T02:36:16;13.37;;;12.63;;
7587;SDS011;3835;48.850;8.938;2023-03-29T02:38:46;13.07;;;12.47;;
7587;SDS011;3835;48.850;8.938;2023-03-29T02:41:13;14.13;;;13.17;;
7587;SDS011;3835;48.850;8.938;2023-03-29T02:43:42;14.07;;;13.27;;
7587;SDS011;3835;48.850;8.938;2023-03-29T02:46:12;13.63;;;12.93;;
7587;SDS011;3835;48.850;8.938;2023-03-29T02:48:41;12.33;;;11.80;;
7587;SDS011;3835;48.850;8.938;2023-03-29T02:51:11;12.13;;;11.43;;
7587;SDS011;3835;48.850;8.938;2023-03-29T02:53:43;12.73;;;11.97;;
7587;SDS011;3835;48.850;8.938;2023-03-29T02:56:13;11.97;;;11.30;;
7587;SDS011;3835;48.850;8.938;2023-03-29T02:58:40;13.03;;;12.23;;
7587;SDS011;3835;48.850;8.938;2023-03-29T03:01:07;11.93;;;11.33;;
7587;SDS011;3835;48.850;8.938;2023-03-29T03:03:36;12.30;;;11.67;;
7587;SDS011;3835;48.850;8.938;2023-03-29T03:06:03;12.60;;;11.97;;
7587;SDS011;3835;48.850;8.938;2023-03-29T03:08:31;11.53;;;11.00;;
7587;SDS011;3835;48.850;8.938;2023-03-29T03:10:57;12.23;;;11.53;;
7587;SDS011;3835;48.850;8.938;2023-03-29T03:13:24;11.93;;;11.33;;
7587;SDS011;3835;48.850;8.938;2023-03-29T03:15:51;11.47;;;10.97;;
7587;SDS011;3835;48.850;8.938;2023-03-29T03:18:18;13.53;;;12.57;;
7587;SDS011;3835;48.850;8.938;2023-03-29T03:20:54;13.17;;;12.47;;
7587;SDS011;3835;48.850;8.938;2023-03-29T03:23:21;13.07;;;12.33;;
7587;SDS011;3835;48.850;8.938;2023-03-29T03:25:48;12.87;;;12.17;;
7587;SDS011;3835;48.850;8.938;2023-03-29T03:28:16;12.67;;;11.97;;
7587;SDS011;3835;48.850;8.938;2023-03-29T03:30:43;12.07;;;11.47;;
7587;SDS011;3835;48.850;8.938;2023-03-29T03:33:10;12.27;;;11.67;;
7587;SDS011;3835;48.850;8.938;2023-03-29T03:35:36;13.60;;;12.93;;
7587;SDS011;3835;48.850;8.938;2023-03-29T03:38:05;11.63;;;11.10;;
7587;SDS011;3835;48.850;8.938;2023-03-29T03:40:32;12.37;;;11.67;;
7587;SDS011;3835;48.850;8.938;2023-03-29T03:42:59;12.73;;;12.03;;
7587;SDS011;3835;48.850;8.938;2023-03-29T03:45:26;12.10;;;11.40;;
7587;SDS011;3835;48.850;8.938;2023-03-29T03:47:53;13.60;;;12.93;;
7587;SDS011;3835;48.850;8.938;2023-03-29T03:50:19;13.90;;;13.17;;
7587;SDS011;3835;48.850;8.938;2023-03-29T03:52:47;15.03;;;14.33;;
7587;SDS011;3835;48.850;8.938;2023-03-29T03:55:15;17.13;;;16.00;;
7587;SDS011;3835;48.850;8.938;2023-03-29T03:57:42;17.10;;;16.17;;
7587;SDS011;3835;48.850;8.938;2023-03-29T04:00:09;15.73;;;14.73;;
7587;SDS011;3835;48.850;8.938;2023-03-29T04:02:42;14.20;;;13.30;;
7587;SDS011;3835;48.850;8.938;2023-03-29T04:05:08;14.23;;;13.47;;
7587;SDS011;3835;48.850;8.938;2023-03-29T04:07:35;13.13;;;12.33;;
7587;SDS011;3835;48.850;8.938;2023-03-29T04:10:02;12.67;;;11.97;;
7587;SDS011;3835;48.850;8.938;2023-03-29T04:12:31;11.17;;;10.60;;
7587;SDS011;3835;48.850;8.938;2023-03-29T04:14:58;12.13;;;11.43;;
7587;SDS011;3835;48.850;8.938;2023-03-29T04:17:25;11.10;;;10.53;;
7587;SDS011;3835;48.850;8.938;2023-03-29T04:19:52;11.87;;;11.17;;
7587;SDS011;3835;48.850;8.938;2023-03-29T04:22:19;12.17;;;11.47;;
7587;SDS011;3835;48.850;8.938;2023-03-29T04:24:45;12.87;;;12.20;;
7587;SDS011;3835;48.850;8.938;2023-03-29T04:27:12;13.17;;;12.53;;
7587;SDS011;3835;48.850;8.938;2023-03-29T04:29:40;13.40;;;12.70;;
7587;SDS011;3835;48.850;8.938;2023-03-29T04:32:08;13.77;;;13.07;;
7587;SDS011;3835;48.850;8.938;2023-03-29T04:34:35;13.57;;;12.87;;
7587;SDS011;3835;48.850;8.938;2023-03-29T04:37:02;14.60;;;13.80;;
7587;SDS011;3835;48.850;8.938;2023-03-29T04:39:34;13.27;;;12.60;;
7587;SDS011;3835;48.850;8.938;2023-03-29T04:42:00;15.23;;;14.27;;
7587;SDS011;3835;48.850;8.938;2023-03-29T04:44:28;19.33;;;17.33;;
7587;SDS011;3835;48.850;8.938;2023-03-29T04:46:58;16.67;;;15.33;;
7587;SDS011;3835;48.850;8.938;2023-03-29T04:49:25;12.57;;;11.97;;
7587;SDS011;3835;48.850;8.938;2023-03-29T04:51:53;12.13;;;11.43;;
7587;SDS011;3835;48.850;8.938;2023-03-29T04:54:20;12.10;;;11.50;;
7587;SDS011;3835;48.850;8.938;2023-03-29T04:56:46;12.97;;;12.20;;
7587;SDS011;3835;48.850;8.938;2023-03-29T04:59:13;11.73;;;11.03;;
7587;SDS011;3835;48.850;8.938;2023-03-29T05:01:40;13.97;;;13.07;;
7587;SDS011;3835;48.850;8.938;2023-03-29T05:04:08;11.83;;;11.13;;
7587;SDS011;3835;48.850;8.938;2023-03-29T05:06:35;11.87;;;11.23;;
7587;SDS011;3835;48.850;8.938;2023-03-29T05:09:02;10.87;;;10.27;;
7587;SDS011;3835;48.850;8.938;2023-03-29T05:11:30;11.10;;;10.60;;
7587;SDS011;3835;48.850;8.938;2023-03-29T05:13:57;10.53;;;9.73;;
7587;SDS011;3835;48.850;8.938;2023-03-29T05:16:27;11.50;;;10.90;;
7587;SDS011;3835;48.850;8.938;2023-03-29T05:18:54;11.63;;;10.93;;
7587;SDS011;3835;48.850;8.938;2023-03-29T05:21:22;13.43;;;12.53;;
7587;SDS011;3835;48.850;8.938;2023-03-29T05:23:52;11.30;;;10.53;;
7587;SDS011;3835;48.850;8.938;2023-03-29T05:26:19;11.53;;;10.90;;
7587;SDS011;3835;48.850;8.938;2023-03-29T05:28:46;12.40;;;11.40;;
7587;SDS011;3835;48.850;8.938;2023-03-29T05:31:13;11.23;;;10.63;;
7587;SDS011;3835;48.850;8.938;2023-03-29T05:33:40;10.93;;;10.43;;
7587;SDS011;3835;48.850;8.938;2023-03-29T05:36:08;11.93;;;11.23;;
7587;SDS011;3835;48.850;8.938;2023-03-29T05:38:38;12.47;;;11.67;;
7587;SDS011;3835;48.850;8.938;2023-03-29T05:41:06;19.03;;;13.87;;
7587;SDS011;3835;48.850;8.938;2023-03-29T05:43:34;13.77;;;12.57;;
7587;SDS011;3835;48.850;8.938;2023-03-29T05:46:01;13.97;;;12.63;;
7587;SDS011;3835;48.850;8.938;2023-03-29T05:48:29;24.00;;;16.67;;
7587;SDS011;3835;48.850;8.938;2023-03-29T05:50:56;11.77;;;11.07;;
7587;SDS011;3835;48.850;8.938;2023-03-29T05:53:24;11.53;;;10.93;;
7587;SDS011;3835;48.850;8.938;2023-03-29T05:55:53;14.03;;;12.93;;
7587;SDS011;3835;48.850;8.938;2023-03-29T05:58:21;17.27;;;13.80;;
7587;SDS011;3835;48.850;8.938;2023-03-29T06:00:50;15.87;;;13.70;;
7587;SDS011;3835;48.850;8.938;2023-03-29T06:03:19;11.43;;;10.73;;
7587;SDS011;3835;48.850;8.938;2023-03-29T06:05:53;12.13;;;11.37;;
7587;SDS011;3835;48.850;8.938;2023-03-29T06:08:22;11.83;;;11.23;;
7587;SDS011;3835;48.850;8.938;2023-03-29T06:10:50;10.97;;;10.27;;
7587;SDS011;3835;48.850;8.938;2023-03-29T06:13:18;13.67;;;12.67;;
7587;SDS011;3835;48.850;8.938;2023-03-29T06:15:46;12.53;;;11.63;;
7587;SDS011;3835;48.850;8.938;2023-03-29T06:18:13;12.53;;;11.67;;
7587;SDS011;3835;48.850;8.938;2023-03-29T06:20:40;10.67;;;10.07;;
7587;SDS011;3835;48.850;8.938;2023-03-29T06:23:07;11.43;;;10.83;;
7587;SDS011;3835;48.850;8.938;2023-03-29T06:25:34;12.40;;;11.50;;
7587;SDS011;3835;48.850;8.938;2023-03-29T06:28:00;12.33;;;11.57;;
7587;SDS011;3835;48.850;8.938;2023-03-29T06:30:29;11.53;;;10.87;;
7587;SDS011;3835;48.850;8.938;2023-03-29T06:32:57;11.07;;;10.57;;
7587;SDS011;3835;48.850;8.938;2023-03-29T06:35:24;10.77;;;10.10;;
7587;SDS011;3835;48.850;8.938;2023-03-29T06:37:51;10.53;;;10.03;;
7587;SDS011;3835;48.850;8.938;2023-03-29T06:40:18;10.10;;;9.60;;
7587;SDS011;3835;48.850;8.938;2023-03-29T06:42:46;11.20;;;10.60;;
7587;SDS011;3835;48.850;8.938;2023-03-29T06:45:15;11.03;;;10.47;;
7587;SDS011;3835;48.850;8.938;2023-03-29T06:47:43;10.33;;;9.80;;
7587;SDS011;3835;48.850;8.938;2023-03-29T06:50:10;10.47;;;9.87;;
7587;SDS011;3835;48.850;8.938;2023-03-29T06:52:38;11.93;;;10.83;;
7587;SDS011;3835;48.850;8.938;2023-03-29T06:55:06;10.97;;;10.40;;
7587;SDS011;3835;48.850;8.938;2023-03-29T06:57:33;11.70;;;11.00;;
7587;SDS011;3835;48.850;8.938;2023-03-29T07:00:00;12.77;;;11.80;;
7587;SDS011;3835;48.850;8.938;2023-03-29T07:02:38;13.37;;;12.57;;
7587;SDS011;3835;48.850;8.938;2023-03-29T07:05:06;12.37;;;11.67;;
7587;SDS011;3835;48.850;8.938;2023-03-29T07:07:35;11.77;;;11.20;;
7587;SDS011;3835;48.850;8.938;2023-03-29T07:10:17;10.73;;;10.23;;
7587;SDS011;3835;48.850;8.938;2023-03-29T07:12:45;11.20;;;10.50;;
7587;SDS011;3835;48.850;8.938;2023-03-29T07:15:12;11.63;;;11.03;;
7587;SDS011;3835;48.850;8.938;2023-03-29T07:17:39;10.43;;;9.83;;
7587;SDS011;3835;48.850;8.938;2023-03-29T07:20:08;11.07;;;10.40;;
7587;SDS011;3835;48.850;8.938;2023-03-29T07:22:39;10.47;;;9.93;;
7587;SDS011;3835;48.850;8.938;2023-03-29T07:25:06;11.63;;;10.63;;
7587;SDS011;3835;48.850;8.938;2023-03-29T07:27:34;11.27;;;10.43;;
7587;SDS011;3835;48.850;8.938;2023-03-29T07:30:02;11.07;;;10.47;;
7587;SDS011;3835;48.850;8.938;2023-03-29T07:32:34;11.90;;;11.13;;
7587;SDS011;3835;48.850;8.938;2023-03-29T07:35:00;10.67;;;10.03;;
7587;SDS011;3835;48.850;8.938;2023-03-29T07:37:29;11.77;;;10.97;;
7587;SDS011;3835;48.850;8.938;2023-03-29T07:39:56;12.10;;;11.20;;
7587;SDS011;3835;48.850;8.938;2023-03-29T07:42:25;12.27;;;11.57;;
7587;SDS011;3835;48.850;8.938;2023-03-29T07:44:52;10.93;;;10.23;;
7587;SDS011;3835;48.850;8.938;2023-03-29T07:47:19;12.77;;;11.60;;
7587;SDS011;3835;48.850;8.938;2023-03-29T07:49:47;12.03;;;11.13;;
7587;SDS011;3835;48.850;8.938;2023-03-29T07:52:13;11.47;;;10.73;;
7587;SDS011;3835;48.850;8.938;2023-03-29T07:54:42;13.03;;;11.57;;
7587;SDS011;3835;48.850;8.938;2023-03-29T07:57:09;14.97;;;13.57;;
7587;SDS011;3835;48.850;8.938;2023-03-29T07:59:36;15.57;;;14.10;;
7587;SDS011;3835;48.850;8.938;2023-03-29T08:02:02;15.93;;;14.17;;
7587;SDS011;3835;48.850;8.938;2023-03-29T08:04:30;14.17;;;13.07;;
7587;SDS011;3835;48.850;8.938;2023-03-29T08:06:57;12.00;;;11.07;;
7587;SDS011;3835;48.850;8.938;2023-03-29T08:09:24;12.70;;;11.90;;
7587;SDS011;3835;48.850;8.938;2023-03-29T08:11:52;12.30;;;11.27;;
7587;SDS011;3835;48.850;8.938;2023-03-29T08:14:19;12.90;;;11.90;;
7587;SDS011;3835;48.850;8.938;2023-03-29T08:16:47;13.53;;;12.33;;
7587;SDS011;3835;48.850;8.938;2023-03-29T08:19:15;12.60;;;11.57;;
7587;SDS011;3835;48.850;8.938;2023-03-29T08:21:42;13.40;;;12.40;;
7587;SDS011;3835;48.850;8.938;2023-03-29T08:24:09;14.37;;;13.17;;
7587;SDS011;3835;48.850;8.938;2023-03-29T08:26:35;11.73;;;11.03;;
7587;SDS011;3835;48.850;8.938;2023-03-29T08:29:04;12.27;;;11.50;;
7587;SDS011;3835;48.850;8.938;2023-03-29T08:31:32;11.37;;;10.67;;
7587;SDS011;3835;48.850;8.938;2023-03-29T08:33:59;11.53;;;10.87;;
7587;SDS011;3835;48.850;8.938;2023-03-29T08:36:26;11.20;;;10.60;;
7587;SDS011;3835;48.850;8.938;2023-03-29T08:38:53;11.37;;;10.73;;
7587;SDS011;3835;48.850;8.938;2023-03-29T08:41:23;11.20;;;10.50;;
7587;SDS011;3835;48.850;8.938;2023-03-29T08:44:07;12.27;;;11.47;;
7587;SDS011;3835;48.850;8.938;2023-03-29T08:46:47;11.00;;;10.50;;
7587;SDS011;3835;48.850;8.938;2023-03-29T08:49:19;11.37;;;10.77;;
7587;SDS011;3835;48.850;8.938;2023-03-29T08:51:48;11.40;;;10.80;;
7587;SDS011;3835;48.850;8.938;2023-03-29T08:54:18;11.27;;;10.77;;
7587;SDS011;3835;48.850;8.938;2023-03-29T08:56:50;12.13;;;11.30;;
7587;SDS011;3835;48.850;8.938;2023-03-29T08:59:23;9.90;;;9.50;;
7587;SDS011;3835;48.850;8.938;2023-03-29T09:01:54;10.77;;;10.20;;
7587;SDS011;3835;48.850;8.938;2023-03-29T09:04:25;11.07;;;10.47;;
7587;SDS011;3835;48.850;8.938;2023-03-29T09:06:54;11.47;;;10.67;;
7587;SDS011;3835;48.850;8.938;2023-03-29T09:09:22;11.40;;;10.80;;
7587;SDS011;3835;48.850;8.938;2023-03-29T09:11:56;11.07;;;10.53;;
7587;SDS011;3835;48.850;8.938;2023-03-29T09:14:40;11.50;;;10.70;;
7587;SDS011;3835;48.850;8.938;2023-03-29T09:17:18;11.07;;;10.47;;
7587;SDS011;3835;48.850;8.938;2023-03-29T09:19:56;11.27;;;10.77;;
7587;SDS011;3835;48.850;8.938;2023-03-29T09:22:30;9.40;;;8.80;;
7587;SDS011;3835;48.850;8.938;2023-03-29T09:25:07;10.73;;;10.13;;
7587;SDS011;3835;48.850;8.938;2023-03-29T09:27:47;10.43;;;9.93;;
7587;SDS011;3835;48.850;8.938;2023-03-29T09:30:20;12.30;;;11.63;;
7587;SDS011;3835;48.850;8.938;2023-03-29T09:32:51;10.77;;;10.17;;
7587;SDS011;3835;48.850;8.938;2023-03-29T09:35:22;11.33;;;10.70;;
7587;SDS011;3835;48.850;8.938;2023-03-29T09:37:53;10.90;;;10.30;;
7587;SDS011;3835;48.850;8.938;2023-03-29T09:40:21;10.93;;;10.37;;
7587;SDS011;3835;48.850;8.938;2023-03-29T09:42:51;12.17;;;11.37;;
7587;SDS011;3835;48.850;8.938;2023-03-29T09:45:21;12.20;;;11.50;;
7587;SDS011;3835;48.850;8.938;2023-03-29T09:47:49;10.57;;;10.07;;
7587;SDS011;3835;48.850;8.938;2023-03-29T09:50:20;11.23;;;10.73;;
7587;SDS011;3835;48.850;8.938;2023-03-29T09:52:52;11.87;;;10.83;;
7587;SDS011;3835;48.850;8.938;2023-03-29T09:55:19;11.50;;;10.70;;
7587;SDS011;3835;48.850;8.938;2023-03-29T09:57:51;12.23;;;11.17;;
7587;SDS011;3835;48.850;8.938;2023-03-29T10:00:18;11.90;;;11.10;;
7587;SDS011;3835;48.850;8.938;2023-03-29T10:02:50;12.37;;;11.77;;
7587;SDS011;3835;48.850;8.938;2023-03-29T10:05:18;12.40;;;11.73;;
7587;SDS011;3835;48.850;8.938;2023-03-29T10:07:47;12.23;;;11.57;;
7587;SDS011;3835;48.850;8.938;2023-03-29T10:10:20;11.67;;;11.10;;
7587;SDS011;3835;48.850;8.938;2023-03-29T10:12:53;11.67;;;11.13;;
7587;SDS011;3835;48.850;8.938;2023-03-29T10:15:25;10.47;;;9.97;;
7587;SDS011;3835;48.850;8.938;2023-03-29T10:17:57;11.93;;;11.33;;
7587;SDS011;3835;48.850;8.938;2023-03-29T10:20:27;11.50;;;10.90;;
7587;SDS011;3835;48.850;8.938;2023-03-29T10:22:55;1999.90;;;999.90;;
7587;SDS011;3835;48.850;8.938;2023-03-29T10:25:24;1999.90;;;999.90;;
7587;SDS011;3835;48.850;8.938;2023-03-29T10:27:53;1999.90;;;999.90;;
7587;SDS011;3835;48.850;8.938;2023-03-29T10:30:23;1999.90;;;999.90;;
7587;SDS011;3835;48.850;8.938;2023-03-29T10:32:54;1999.90;;;999.90;;
7587;SDS011;3835;48.850;8.938;2023-03-29T10:35:27;1999.90;;;999.90;;
7587;SDS011;3835;48.850;8.938;2023-03-29T10:37:56;1999.90;;;999.90;;
7587;SDS011;3835;48.850;8.938;2023-03-29T10:40:25;1999.90;;;999.90;;
7587;SDS011;3835;48.850;8.938;2023-03-29T10:42:53;1999.90;;;999.90;;
7587;SDS011;3835;48.850;8.938;2023-03-29T10:45:24;1999.90;;;999.90;;
7587;SDS011;3835;48.850;8.938;2023-03-29T10:47:54;10.73;;;10.23;;
7587;SDS011;3835;48.850;8.938;2023-03-29T10:50:22;10.60;;;10.00;;
7587;SDS011;3835;48.850;8.938;2023-03-29T10:52:50;11.73;;;11.13;;
7587;SDS011;3835;48.850;8.938;2023-03-29T10:55:17;11.37;;;10.40;;
7587;SDS011;3835;48.850;8.938;2023-03-29T10:57:47;10.73;;;10.23;;
7587;SDS011;3835;48.850;8.938;2023-03-29T11:00:22;11.60;;;10.43;;
7587;SDS011;3835;48.850;8.938;2023-03-29T11:05:44;11.30;;;10.70;;
7587;SDS011;3835;48.850;8.938;2023-03-29T11:08:31;10.90;;;10.27;;
7587;SDS011;3835;48.850;8.938;2023-03-29T11:11:11;10.80;;;10.30;;
7587;SDS011;3835;48.850;8.938;2023-03-29T11:13:53;10.90;;;10.30;;
7587;SDS011;3835;48.850;8.938;2023-03-29T11:16:29;11.03;;;10.53;;
7587;SDS011;3835;48.850;8.938;2023-03-29T11:19:17;10.60;;;10.00;;
7587;SDS011;3835;48.850;8.938;2023-03-29T11:21:54;12.03;;;11.27;;
7587;SDS011;3835;48.850;8.938;2023-03-29T11:24:34;11.07;;;10.57;;
7587;SDS011;3835;48.850;8.938;2023-03-29T11:27:15;10.90;;;10.30;;
7587;SDS011;3835;48.850;8.938;2023-03-29T11:29:54;10.77;;;10.07;;
7587;SDS011;3835;48.850;8.938;2023-03-29T11:32:32;10.23;;;9.83;;
7587;SDS011;3835;48.850;8.938;2023-03-29T11:35:12;11.07;;;10.50;;
7587;SDS011;3835;48.850;8.938;2023-03-29T11:37:50;10.67;;;10.03;;
7587;SDS011;3835;48.850;8.938;2023-03-29T11:40:30;10.03;;;9.53;;
7587;SDS011;3835;48.850;8.938;2023-03-29T11:43:10;11.57;;;10.97;;
7587;SDS011;3835;48.850;8.938;2023-03-29T11:45:42;11.23;;;10.43;;
7587;SDS011;3835;48.850;8.938;2023-03-29T11:48:13;10.73;;;10.23;;
7587;SDS011;3835;48.850;8.938;2023-03-29T11:50:46;10.17;;;9.57;;
7587;SDS011;3835;48.850;8.938;2023-03-29T11:53:19;11.37;;;10.77;;
7587;SDS011;3835;48.850;8.938;2023-03-29T11:55:51;39.10;;;35.43;;
7587;SDS011;3835;48.850;8.938;2023-03-29T11:58:21;10.83;;;10.17;;
7587;SDS011;3835;48.850;8.938;2023-03-29T12:00:54;11.07;;;10.57;;
7587;SDS011;3835;48.850;8.938;2023-03-29T12:03:29;9.70;;;9.20;;
7587;SDS011;3835;48.850;8.938;2023-03-29T12:06:02;10.80;;;10.23;;
7587;SDS011;3835;48.850;8.938;2023-03-29T12:08:37;9.77;;;9.37;;
7587;SDS011;3835;48.850;8.938;2023-03-29T12:11:10;10.17;;;9.57;;
7587;SDS011;3835;48.850;8.938;2023-03-29T12:13:44;11.17;;;10.40;;
7587;SDS011;3835;48.850;8.938;2023-03-29T12:16:17;10.70;;;10.13;;
7587;SDS011;3835;48.850;8.938;2023-03-29T12:18:48;11.03;;;10.33;;
7587;SDS011;3835;48.850;8.938;2023-03-29T12:21:17;11.03;;;10.53;;
7587;SDS011;3835;48.850;8.938;2023-03-29T12:23:46;10.87;;;10.33;;
7587;SDS011;3835;48.850;8.938;2023-03-29T12:26:17;10.00;;;9.50;;
7587;SDS011;3835;48.850;8.938;2023-03-29T12:29:01;9.63;;;9.23;;
7587;SDS011;3835;48.850;8.938;2023-03-29T12:31:36;10.40;;;9.90;;
7587;SDS011;3835;48.850;8.938;2023-03-29T12:34:13;10.10;;;9.67;;
7587;SDS011;3835;48.850;8.938;2023-03-29T12:37:01;11.13;;;10.63;;
7587;SDS011;3835;48.850;8.938;2023-03-29T12:39:41;10.87;;;10.37;;
7587;SDS011;3835;48.850;8.938;2023-03-29T12:42:13;10.80;;;10.30;;
7587;SDS011;3835;48.850;8.938;2023-03-29T12:44:43;11.30;;;10.80;;
7587;SDS011;3835;48.850;8.938;2023-03-29T12:47:19;10.83;;;10.23;;
7587;SDS011;3835;48.850;8.938;2023-03-29T12:49:50;10.30;;;9.90;;
7587;SDS011;3835;48.850;8.938;2023-03-29T12:52:22;10.27;;;9.77;;
7587;SDS011;3835;48.850;8.938;2023-03-29T12:54:56;11.00;;;10.40;;
7587;SDS011;3835;48.850;8.938;2023-03-29T12:57:27;10.60;;;10.10;;
7587;SDS011;3835;48.850;8.938;2023-03-29T13:00:17;11.30;;;10.70;;
7587;SDS011;3835;48.850;8.938;2023-03-29T13:02:57;11.53;;;10.70;;
7587;SDS011;3835;48.850;8.938;2023-03-29T13:05:28;11.43;;;10.80;;
7587;SDS011;3835;48.850;8.938;2023-03-29T13:07:58;11.43;;;10.83;;
7587;SDS011;3835;48.850;8.938;2023-03-29T13:10:38;10.57;;;9.93;;
7587;SDS011;3835;48.850;8.938;2023-03-29T13:13:13;10.10;;;9.50;;
7587;SDS011;3835;48.850;8.938;2023-03-29T13:15:43;10.93;;;10.33;;
7587;SDS011;3835;48.850;8.938;2023-03-29T13:18:24;11.03;;;10.47;;
7587;SDS011;3835;48.850;8.938;2023-03-29T13:21:10;10.77;;;10.00;;
7587;SDS011;3835;48.850;8.938;2023-03-29T13:23:46;10.97;;;10.37;;
7587;SDS011;3835;48.850;8.938;2023-03-29T13:26:25;10.37;;;9.87;;
7587;SDS011;3835;48.850;8.938;2023-03-29T13:29:11;10.70;;;10.17;;
7587;SDS011;3835;48.850;8.938;2023-03-29T13:31:50;10.77;;;9.97;;
7587;SDS011;3835;48.850;8.938;2023-03-29T13:34:27;11.03;;;10.43;;
7587;SDS011;3835;48.850;8.938;2023-03-29T13:37:03;10.70;;;10.17;;
7587;SDS011;3835;48.850;8.938;2023-03-29T13:39:45;10.33;;;9.83;;
7587;SDS011;3835;48.850;8.938;2023-03-29T13:42:17;10.47;;;9.87;;
7587;SDS011;3835;48.850;8.938;2023-03-29T13:44:51;11.47;;;10.97;;
7587;SDS011;3835;48.850;8.938;2023-03-29T13:47:39;12.40;;;11.80;;
7587;SDS011;3835;48.850;8.938;2023-03-29T13:50:10;11.63;;;11.03;;
7587;SDS011;3835;48.850;8.938;2023-03-29T13:52:42;11.33;;;10.43;;
7587;SDS011;3835;48.850;8.938;2023-03-29T13:55:16;11.10;;;10.43;;
7587;SDS011;3835;48.850;8.938;2023-03-29T13:57:48;11.27;;;10.67;;
7587;SDS011;3835;48.850;8.938;2023-03-29T14:00:22;12.10;;;11.50;;
7587;SDS011;3835;48.850;8.938;2023-03-29T14:02:53;11.67;;;11.07;;
7587;SDS011;3835;48.850;8.938;2023-03-29T14:05:23;12.50;;;11.90;;
7587;SDS011;3835;48.850;8.938;2023-03-29T14:07:53;11.70;;;11.10;;
7587;SDS011;3835;48.850;8.938;2023-03-29T14:10:22;13.33;;;12.47;;
7587;SDS011;3835;48.850;8.938;2023-03-29T14:12:52;11.43;;;10.73;;
7587;SDS011;3835;48.850;8.938;2023-03-29T14:15:23;12.30;;;11.60;;
7587;SDS011;3835;48.850;8.938;2023-03-29T14:17:52;10.33;;;9.83;;
7587;SDS011;3835;48.850;8.938;2023-03-29T14:20:20;11.67;;;11.07;;
7587;SDS011;3835;48.850;8.938;2023-03-29T14:22:48;10.93;;;10.17;;
7587;SDS011;3835;48.850;8.938;2023-03-29T14:25:16;11.23;;;10.63;;
7587;SDS011;3835;48.850;8.938;2023-03-29T14:27:45;11.33;;;10.73;;
7587;SDS011;3835;48.850;8.938;2023-03-29T14:30:19;11.53;;;10.90;;
7587;SDS011;3835;48.850;8.938;2023-03-29T14:32:51;12.30;;;11.70;;
7587;SDS011;3835;48.850;8.938;2023-03-29T14:35:18;11.47;;;10.87;;
7587;SDS011;3835;48.850;8.938;2023-03-29T14:37:51;11.50;;;10.93;;
7587;SDS011;3835;48.850;8.938;2023-03-29T14:40:18;12.10;;;11.23;;
7587;SDS011;3835;48.850;8.938;2023-03-29T14:42:46;10.33;;;9.93;;
7587;SDS011;3835;48.850;8.938;2023-03-29T14:45:15;11.37;;;10.77;;
7587;SDS011;3835;48.850;8.938;2023-03-29T14:47:45;11.17;;;10.53;;
7587;SDS011;3835;48.850;8.938;2023-03-29T14:50:15;11.57;;;11.07;;
7587;SDS011;3835;48.850;8.938;2023-03-29T14:52:46;11.13;;;10.63;;
7587;SDS011;3835;48.850;8.938;2023-03-29T14:55:15;12.30;;;11.57;;
7587;SDS011;3835;48.850;8.938;2023-03-29T14:57:47;10.50;;;10.00;;
7587;SDS011;3835;48.850;8.938;2023-03-29T15:00:17;11.33;;;10.73;;
7587;SDS011;3835;48.850;8.938;2023-03-29T15:02:53;10.83;;;10.13;;
7587;SDS011;3835;48.850;8.938;2023-03-29T15:05:23;11.17;;;10.47;;
7587;SDS011;3835;48.850;8.938;2023-03-29T15:07:58;10.83;;;10.27;;
7587;SDS011;3835;48.850;8.938;2023-03-29T15:10:29;11.13;;;10.53;;